Weather at Anadolu Airport

Public forecast

Using degrees Celsius for public forecast. Weather courtesy of forecast.io.

Current aviation weather report (METAR) for Anadolu Airport

Report is more than 6 hours old.

2022/11/14 14:50 (retrieved 2 years ago)

LTBY 141450Z 27004KT 240V310 CAVOK 11/03 Q1022

Closest aviation forecast (TAF) to Anadolu Airport

Forecast is more than 12 hours old.

Closest forecast is Bursa Yenişehir Airport, 51.5 nm (95.3 km) WNW.

2023/02/22 18:03 (retrieved 1 year ago)

TAF LTBR 221640Z 2218/2318 VRB02KT CAVOK BECMG 2300/2303 3500 BR PROB30 2303/2307 1200 BCFG BECMG 2307/2310 CAVOK BECMG 2310/2313 FEW035 BKN180 PROB40 2311/2315 03012KT BECMG 2316/2318 CAVOK